createdAt,value
2023-01-26T00:02:18.526Z,56.35
2023-01-26T00:04:45.160Z,56.62
2023-01-26T00:07:11.758Z,56.73
2023-01-26T00:09:38.404Z,56.41
2023-01-26T00:12:05.151Z,56.24
2023-01-26T00:14:49.932Z,56.04
2023-01-26T00:17:17.366Z,56.40
2023-01-26T00:19:46.365Z,56.77
2023-01-26T00:22:13.051Z,56.37
2023-01-26T00:24:48.468Z,56.60
2023-01-26T00:27:17.628Z,56.86
2023-01-26T00:29:44.264Z,56.97
2023-01-26T00:32:10.920Z,56.70
2023-01-26T00:34:37.627Z,56.75
2023-01-26T00:37:04.275Z,56.68
2023-01-26T00:39:30.882Z,56.44
2023-01-26T00:42:14.026Z,56.06
2023-01-26T00:44:42.268Z,56.58
2023-01-26T00:47:10.061Z,56.60
2023-01-26T00:49:36.769Z,56.41
2023-01-26T00:52:03.985Z,56.83
2023-01-26T00:54:30.715Z,56.46
2023-01-26T00:56:57.532Z,56.69
2023-01-26T00:59:24.210Z,57.05
2023-01-26T01:01:52.097Z,57.17
2023-01-26T01:04:19.071Z,57.13
2023-01-26T01:06:45.719Z,57.53
2023-01-26T01:09:12.715Z,57.19
2023-01-26T01:11:39.365Z,57.00
2023-01-26T01:14:06.087Z,57.34
2023-01-26T01:16:32.738Z,57.23
2023-01-26T01:18:59.417Z,57.34
2023-01-26T01:21:26.271Z,57.71
2023-01-26T01:23:53.167Z,57.87
2023-01-26T01:26:19.837Z,57.60
2023-01-26T01:28:46.635Z,57.93
2023-01-26T01:31:15.191Z,57.59
2023-01-26T01:33:42.766Z,58.29
2023-01-26T01:36:11.416Z,58.44
2023-01-26T01:38:38.093Z,58.44
2023-01-26T01:41:04.881Z,57.93
2023-01-26T01:43:31.814Z,57.71
2023-01-26T01:46:00.471Z,59.06
2023-01-26T01:48:27.138Z,58.86
2023-01-26T01:50:55.240Z,58.99
2023-01-26T01:53:24.812Z,59.44
2023-01-26T01:55:54.505Z,59.63
2023-01-26T01:58:21.967Z,59.40
2023-01-26T02:00:48.796Z,59.21
2023-01-26T02:03:19.273Z,59.17
2023-01-26T02:05:49.880Z,58.84
2023-01-26T02:08:17.420Z,58.96
2023-01-26T02:10:46.450Z,58.99
2023-01-26T02:13:13.580Z,59.44
2023-01-26T02:15:42.904Z,59.02
2023-01-26T02:18:11.445Z,58.98
2023-01-26T02:20:44.642Z,59.13
2023-01-26T02:23:31.537Z,59.79
2023-01-26T02:26:05.518Z,59.52
2023-01-26T02:28:32.973Z,59.45
2023-01-26T02:30:59.928Z,59.52
2023-01-26T02:33:28.689Z,59.34
2023-01-26T02:35:59.677Z,59.27
2023-01-26T02:38:28.908Z,59.36
2023-01-26T02:40:57.743Z,59.36
2023-01-26T02:43:26.132Z,59.37
2023-01-26T02:45:53.009Z,59.37
2023-01-26T02:48:39.834Z,59.40
2023-01-26T02:51:07.281Z,59.40
2023-01-26T02:53:34.051Z,59.46
2023-01-26T02:56:01.290Z,59.46
2023-01-26T02:58:28.066Z,59.46
2023-01-26T03:00:54.703Z,59.51
2023-01-26T03:03:23.809Z,59.70
2023-01-26T03:05:51.197Z,59.64
2023-01-26T03:08:18.096Z,59.64
2023-01-26T03:10:47.469Z,59.55
2023-01-26T03:13:14.638Z,59.26
2023-01-26T03:15:48.136Z,59.35
2023-01-26T03:18:34.699Z,59.51
2023-01-26T03:21:21.347Z,59.46
2023-01-26T03:24:06.693Z,59.23
2023-01-26T03:26:53.530Z,59.32
2023-01-26T03:29:20.648Z,59.35
2023-01-26T03:31:48.088Z,59.38
2023-01-26T03:34:14.857Z,59.35
2023-01-26T03:36:43.759Z,59.25
2023-01-26T03:39:34.100Z,58.71
2023-01-26T03:42:19.986Z,58.72
2023-01-26T03:45:05.341Z,58.34
2023-01-26T03:47:51.829Z,58.27
2023-01-26T03:50:37.718Z,58.79
2023-01-26T03:53:33.890Z,58.65
2023-01-26T03:56:19.223Z,58.39
2023-01-26T03:58:48.172Z,58.15
2023-01-26T04:01:21.138Z,57.99
2023-01-26T04:04:10.339Z,58.24
2023-01-26T04:06:57.466Z,58.94
2023-01-26T04:09:24.213Z,59.03
2023-01-26T04:11:50.931Z,58.91
2023-01-26T04:14:49.677Z,59.41
2023-01-26T04:17:40.956Z,58.99
2023-01-26T04:20:26.823Z,58.47
2023-01-26T04:22:53.555Z,58.88
2023-01-26T04:25:20.881Z,59.32
2023-01-26T04:27:47.597Z,59.58
2023-01-26T04:30:15.701Z,59.92
2023-01-26T04:32:42.842Z,60.32
2023-01-26T04:35:10.470Z,60.30
2023-01-26T04:37:37.959Z,60.08
2023-01-26T04:40:05.419Z,60.39
2023-01-26T04:42:33.838Z,60.40
2023-01-26T04:45:02.022Z,60.27
2023-01-26T04:47:30.021Z,60.55
2023-01-26T04:49:57.272Z,60.00
2023-01-26T04:52:24.154Z,60.01
2023-01-26T04:54:51.337Z,60.19
2023-01-26T04:57:20.610Z,60.18
2023-01-26T04:59:49.947Z,59.95
2023-01-26T05:02:18.534Z,60.17
2023-01-26T05:04:45.196Z,60.38
2023-01-26T05:07:12.548Z,60.61
2023-01-26T05:09:39.312Z,61.06
2023-01-26T05:12:37.542Z,61.41
2023-01-26T05:15:22.468Z,61.06
2023-01-26T05:18:10.540Z,61.80
2023-01-26T05:20:57.989Z,61.59
2023-01-26T05:23:26.671Z,62.11
2023-01-26T05:26:02.394Z,61.36
2023-01-26T05:28:31.881Z,61.03
2023-01-26T05:30:59.040Z,60.84
2023-01-26T05:33:25.895Z,60.47
2023-01-26T05:35:53.103Z,60.70
2023-01-26T05:38:20.481Z,60.88
2023-01-26T05:40:48.205Z,61.46
2023-01-26T05:43:16.065Z,61.49
2023-01-26T05:46:07.587Z,61.80
2023-01-26T05:48:34.557Z,61.67
2023-01-26T05:51:03.803Z,61.40
2023-01-26T05:53:32.498Z,61.83
2023-01-26T05:55:59.161Z,62.31
2023-01-26T05:58:31.768Z,62.19
2023-01-26T06:00:58.807Z,62.36
2023-01-26T06:03:30.237Z,62.18
2023-01-26T06:05:57.287Z,62.25
2023-01-26T06:08:44.243Z,62.13
2023-01-26T06:11:32.180Z,62.10
2023-01-26T06:14:21.717Z,61.78
2023-01-26T06:16:48.773Z,62.01
2023-01-26T06:19:15.666Z,62.17
2023-01-26T06:21:46.451Z,62.19
2023-01-26T06:24:13.184Z,62.29
2023-01-26T06:26:40.705Z,62.74
2023-01-26T06:29:09.147Z,62.28
2023-01-26T06:31:39.139Z,62.37
2023-01-26T06:34:06.265Z,62.01
2023-01-26T06:36:37.898Z,62.23
2023-01-26T06:39:07.570Z,62.05
2023-01-26T06:41:35.301Z,61.81
2023-01-26T06:44:02.014Z,61.69
2023-01-26T06:46:29.347Z,61.44
2023-01-26T06:48:55.979Z,61.48
2023-01-26T06:51:28.509Z,61.09
2023-01-26T06:53:56.219Z,61.23
2023-01-26T06:56:29.071Z,61.03
2023-01-26T06:59:12.078Z,61.67
2023-01-26T07:01:58.978Z,61.40
2023-01-26T07:04:26.800Z,61.26
2023-01-26T07:06:53.466Z,61.45
2023-01-26T07:09:20.099Z,61.47
2023-01-26T07:11:46.739Z,61.50
2023-01-26T07:14:13.364Z,61.80
2023-01-26T07:16:40.038Z,61.57
2023-01-26T07:19:07.314Z,61.57
2023-01-26T07:21:35.521Z,61.39
2023-01-26T07:24:02.133Z,61.11
2023-01-26T07:26:28.807Z,61.07
2023-01-26T07:28:55.515Z,61.71
2023-01-26T07:31:22.236Z,61.63
2023-01-26T07:33:49.032Z,61.41
2023-01-26T07:36:15.628Z,61.57
2023-01-26T07:38:42.343Z,60.89
2023-01-26T07:41:11.587Z,61.16
2023-01-26T07:43:38.620Z,61.18
2023-01-26T07:46:10.625Z,61.97
2023-01-26T07:48:37.438Z,61.87
2023-01-26T07:51:04.736Z,61.64
2023-01-26T07:53:34.079Z,61.86
2023-01-26T07:56:14.477Z,61.69
2023-01-26T07:58:41.198Z,62.68
2023-01-26T08:01:08.992Z,62.52
2023-01-26T08:03:36.160Z,62.19
2023-01-26T08:06:03.204Z,61.95
2023-01-26T08:08:29.878Z,62.38
2023-01-26T08:11:00.768Z,61.79
2023-01-26T08:13:35.206Z,61.49
2023-01-26T08:16:12.068Z,61.26
2023-01-26T08:18:39.516Z,60.83
2023-01-26T08:21:06.301Z,65.60
2023-01-26T08:23:33.041Z,64.45
2023-01-26T08:26:03.074Z,64.64
2023-01-26T08:28:29.948Z,60.43
2023-01-26T08:30:56.615Z,61.72
2023-01-26T08:33:24.185Z,60.16
2023-01-26T08:35:50.878Z,61.61
2023-01-26T08:38:17.602Z,59.70
2023-01-26T08:40:44.249Z,60.65
2023-01-26T08:43:11.020Z,58.88
2023-01-26T08:45:37.806Z,58.46
2023-01-26T08:48:04.983Z,59.72
2023-01-26T08:50:31.619Z,60.14
2023-01-26T08:52:58.271Z,58.28
2023-01-26T08:55:24.992Z,57.81
2023-01-26T08:57:55.245Z,57.55
2023-01-26T09:00:22.921Z,57.21
2023-01-26T09:02:49.692Z,57.21
2023-01-26T09:05:16.466Z,57.15
2023-01-26T09:07:43.280Z,57.65
2023-01-26T09:10:10.723Z,58.58
2023-01-26T09:12:40.081Z,59.18
2023-01-26T09:15:08.216Z,59.06
2023-01-26T09:17:35.082Z,58.93
2023-01-26T09:20:01.795Z,58.07
2023-01-26T09:22:28.490Z,57.75
2023-01-26T09:24:55.223Z,57.82
2023-01-26T09:27:21.932Z,57.62
2023-01-26T09:29:48.624Z,57.38
2023-01-26T09:32:15.278Z,57.48
2023-01-26T09:34:44.160Z,57.49
2023-01-26T09:37:12.146Z,57.53
2023-01-26T09:39:38.888Z,57.00
2023-01-26T09:42:27.657Z,56.97
2023-01-26T09:45:17.449Z,57.09
2023-01-26T09:48:06.947Z,56.90
2023-01-26T09:50:40.414Z,56.60
2023-01-26T09:53:12.909Z,56.35
2023-01-26T09:55:40.637Z,56.69
2023-01-26T09:58:13.132Z,56.79
2023-01-26T10:00:50.704Z,56.08
2023-01-26T10:03:26.982Z,55.47
2023-01-26T10:05:58.904Z,55.56
2023-01-26T10:09:35.772Z,54.76
2023-01-26T10:12:04.703Z,54.48
2023-01-26T10:14:34.223Z,53.90
2023-01-26T10:17:01.302Z,53.75
2023-01-26T10:19:42.844Z,53.22
2023-01-26T10:22:32.001Z,53.23
2023-01-26T10:24:59.709Z,52.64
2023-01-26T10:27:28.033Z,52.35
2023-01-26T10:29:54.731Z,52.51
2023-01-26T10:32:21.680Z,52.67
2023-01-26T10:34:49.206Z,52.76
2023-01-26T10:37:28.261Z,52.25
2023-01-26T10:39:58.505Z,51.93
2023-01-26T10:42:27.526Z,51.63
2023-01-26T10:44:54.171Z,50.86
2023-01-26T10:47:22.139Z,51.04
2023-01-26T10:49:49.231Z,51.06
2023-01-26T10:52:17.739Z,51.00
2023-01-26T10:54:45.092Z,50.56
2023-01-26T10:57:19.753Z,50.57
2023-01-26T10:59:57.364Z,49.91
2023-01-26T11:02:27.174Z,49.62
2023-01-26T11:05:09.352Z,49.52
2023-01-26T11:07:40.616Z,49.88
2023-01-26T11:10:16.302Z,49.54
2023-01-26T11:12:43.198Z,49.12
2023-01-26T11:15:20.310Z,48.98
2023-01-26T11:17:51.670Z,48.63
2023-01-26T11:20:28.187Z,48.96
2023-01-26T11:22:54.816Z,48.24
2023-01-26T11:25:26.654Z,48.02
2023-01-26T11:28:19.706Z,47.25
2023-01-26T11:30:49.417Z,47.19
2023-01-26T11:33:34.083Z,47.14
2023-01-26T11:36:16.189Z,47.16
2023-01-26T11:38:57.886Z,47.02
2023-01-26T11:41:40.926Z,47.05
2023-01-26T11:44:36.811Z,47.14
2023-01-26T11:47:12.615Z,46.59
2023-01-26T11:50:08.554Z,46.77
2023-01-26T11:52:55.493Z,46.47
2023-01-26T11:55:28.249Z,45.80
2023-01-26T11:58:13.663Z,45.59
2023-01-26T12:00:51.730Z,45.14
2023-01-26T12:03:41.509Z,45.13
2023-01-26T12:06:14.297Z,45.12
2023-01-26T12:08:47.302Z,44.68
2023-01-26T12:11:24.042Z,44.53
2023-01-26T12:14:03.635Z,44.70
2023-01-26T12:16:49.208Z,44.70
2023-01-26T12:19:34.485Z,43.88
2023-01-26T12:22:05.469Z,43.30
2023-01-26T12:25:08.278Z,42.90
2023-01-26T12:27:40.813Z,42.58
2023-01-26T12:30:30.669Z,43.99
2023-01-26T12:32:57.410Z,44.03
2023-01-26T12:35:44.461Z,43.67
2023-01-26T12:38:17.968Z,43.98
2023-01-26T12:40:48.018Z,44.26
2023-01-26T12:43:20.126Z,44.12
2023-01-26T12:45:49.494Z,43.85
2023-01-26T12:48:19.718Z,44.24
2023-01-26T12:50:49.577Z,45.05
2023-01-26T12:53:32.425Z,44.90
2023-01-26T12:56:23.587Z,44.60
2023-01-26T12:58:51.335Z,44.37
2023-01-26T13:01:19.316Z,44.47
2023-01-26T13:03:56.825Z,44.37
2023-01-26T13:06:27.456Z,44.31
2023-01-26T13:08:57.185Z,43.90
2023-01-26T13:11:42.268Z,43.75
2023-01-26T13:14:24.657Z,43.20
2023-01-26T13:16:51.275Z,45.09
2023-01-26T13:19:36.863Z,45.65
2023-01-26T13:22:03.565Z,45.05
2023-01-26T13:24:30.272Z,45.33
2023-01-26T13:26:57.729Z,45.04
2023-01-26T13:29:33.490Z,45.13
2023-01-26T13:32:23.214Z,45.35
2023-01-26T13:35:00.566Z,45.44
2023-01-26T13:37:45.879Z,45.39
2023-01-26T13:40:15.478Z,45.32
2023-01-26T13:42:52.232Z,45.70
2023-01-26T13:45:27.569Z,45.89
2023-01-26T13:47:56.264Z,46.46
2023-01-26T13:50:24.043Z,46.68
2023-01-26T13:52:51.049Z,46.70
2023-01-26T13:55:31.086Z,46.34
2023-01-26T13:58:30.028Z,46.06
2023-01-26T14:00:59.709Z,46.14
2023-01-26T14:03:26.462Z,45.65
2023-01-26T14:05:56.096Z,46.28
2023-01-26T14:08:23.412Z,46.51
2023-01-26T14:10:51.026Z,46.29
2023-01-26T14:13:37.291Z,47.13
2023-01-26T14:16:10.483Z,46.87
2023-01-26T14:18:37.343Z,47.29
2023-01-26T14:21:06.618Z,47.37
2023-01-26T14:23:35.388Z,47.21
2023-01-26T14:26:04.481Z,47.15
2023-01-26T14:28:34.696Z,48.01
2023-01-26T14:31:09.552Z,47.98
2023-01-26T14:33:37.337Z,47.62
2023-01-26T14:36:04.793Z,48.21
2023-01-26T14:38:42.722Z,47.76
2023-01-26T14:41:30.819Z,48.19
2023-01-26T14:43:59.904Z,48.14
2023-01-26T14:46:34.839Z,48.21
2023-01-26T14:49:06.058Z,48.06
2023-01-26T14:51:34.941Z,48.30
2023-01-26T14:54:04.740Z,48.25
2023-01-26T14:56:37.331Z,48.47
2023-01-26T14:59:05.335Z,48.74
2023-01-26T15:01:32.477Z,49.05
2023-01-26T15:04:01.395Z,49.63
2023-01-26T15:06:29.390Z,49.58
2023-01-26T15:08:56.141Z,49.09
2023-01-26T15:12:07.466Z,49.01
2023-01-26T15:14:34.117Z,48.79
2023-01-26T15:17:00.844Z,49.34
2023-01-26T15:19:31.741Z,49.73
2023-01-26T15:21:58.481Z,49.81
2023-01-26T15:24:25.187Z,49.78
2023-01-26T15:26:51.937Z,49.94
2023-01-26T15:29:26.254Z,50.04
2023-01-26T15:31:54.576Z,50.24
2023-01-26T15:34:36.280Z,50.72
2023-01-26T15:37:23.198Z,50.79
2023-01-26T15:39:49.801Z,51.38
2023-01-26T15:42:21.395Z,51.48
2023-01-26T15:44:48.104Z,51.77
2023-01-26T15:47:14.798Z,51.63
2023-01-26T15:49:42.760Z,51.69
2023-01-26T15:52:12.548Z,51.45
2023-01-26T15:54:39.315Z,51.73
2023-01-26T15:57:06.226Z,52.11
2023-01-26T15:59:32.900Z,52.15
2023-01-26T16:01:59.640Z,51.90
2023-01-26T16:04:28.169Z,52.77
2023-01-26T16:06:54.856Z,52.58
2023-01-26T16:09:21.491Z,52.76
2023-01-26T16:11:49.904Z,52.67
2023-01-26T16:14:16.749Z,52.61
2023-01-26T16:16:43.434Z,52.55
2023-01-26T16:19:10.204Z,52.82
2023-01-26T16:21:40.105Z,52.93
2023-01-26T16:24:07.765Z,53.06
2023-01-26T16:26:34.428Z,53.23
2023-01-26T16:29:01.215Z,54.01
2023-01-26T16:31:32.106Z,54.04
2023-01-26T16:33:59.488Z,54.35
2023-01-26T16:36:26.128Z,54.35
2023-01-26T16:38:53.100Z,54.29
2023-01-26T16:41:30.729Z,54.74
2023-01-26T16:43:58.709Z,54.59
2023-01-26T16:46:26.003Z,54.71
2023-01-26T16:48:53.098Z,54.74
2023-01-26T16:51:27.141Z,54.63
2023-01-26T16:53:54.485Z,55.44
2023-01-26T16:56:22.025Z,55.32
2023-01-26T16:58:48.838Z,55.54
2023-01-26T17:01:20.244Z,55.36
2023-01-26T17:03:48.030Z,55.42
2023-01-26T17:06:15.327Z,55.97
2023-01-26T17:08:42.173Z,55.77
2023-01-26T17:11:15.129Z,55.89
2023-01-26T17:13:41.915Z,56.04
2023-01-26T17:16:12.773Z,56.09
2023-01-26T17:18:39.492Z,56.18
2023-01-26T17:21:06.087Z,56.28
2023-01-26T17:23:32.760Z,56.24
2023-01-26T17:25:59.954Z,56.24
2023-01-26T17:28:29.837Z,56.56
2023-01-26T17:30:57.062Z,56.65
2023-01-26T17:33:25.047Z,56.99
2023-01-26T17:35:59.035Z,56.88
2023-01-26T17:38:25.696Z,56.86
2023-01-26T17:40:56.243Z,57.18
2023-01-26T17:43:22.997Z,56.79
2023-01-26T17:45:49.826Z,56.81
2023-01-26T17:48:16.647Z,56.98
2023-01-26T17:50:49.877Z,56.87
2023-01-26T17:53:16.808Z,56.81
2023-01-26T17:55:43.855Z,56.74
2023-01-26T17:58:10.969Z,57.05
2023-01-26T18:00:38.343Z,56.94
2023-01-26T18:03:05.289Z,56.97
2023-01-26T18:05:32.189Z,57.25
2023-01-26T18:07:58.924Z,56.84
2023-01-26T18:10:25.526Z,56.99
2023-01-26T18:12:52.203Z,57.36
2023-01-26T18:15:18.892Z,57.17
2023-01-26T18:17:45.505Z,57.17
2023-01-26T18:20:12.330Z,57.18
2023-01-26T18:22:38.977Z,57.01
2023-01-26T18:25:05.809Z,57.17
2023-01-26T18:27:32.491Z,57.07
2023-01-26T18:29:59.235Z,57.18
2023-01-26T18:32:26.015Z,57.41
2023-01-26T18:34:52.655Z,57.31
2023-01-26T18:37:19.397Z,57.28
2023-01-26T18:39:46.028Z,57.41
2023-01-26T18:42:12.718Z,57.58
2023-01-26T18:44:39.357Z,57.90
2023-01-26T18:47:06.096Z,57.81
2023-01-26T18:49:32.873Z,58.03
2023-01-26T18:51:59.535Z,58.27
2023-01-26T18:54:26.228Z,58.29
2023-01-26T18:56:52.956Z,58.39
2023-01-26T18:59:19.652Z,58.47
2023-01-26T19:01:46.420Z,58.66
2023-01-26T19:04:13.128Z,58.80
2023-01-26T19:06:39.753Z,58.55
2023-01-26T19:09:07.414Z,58.47
2023-01-26T19:11:35.522Z,58.36
2023-01-26T19:14:02.595Z,58.41
2023-01-26T19:16:29.987Z,58.21
2023-01-26T19:18:56.898Z,58.38
2023-01-26T19:21:24.773Z,58.40
2023-01-26T19:23:52.951Z,58.63
2023-01-26T19:26:21.325Z,58.54
2023-01-26T19:28:50.454Z,58.80
2023-01-26T19:31:19.341Z,59.20
2023-01-26T19:33:57.209Z,59.35
2023-01-26T19:36:24.530Z,59.23
2023-01-26T19:38:51.462Z,59.30
2023-01-26T19:41:18.953Z,59.24
2023-01-26T19:43:45.666Z,58.99
2023-01-26T19:46:13.405Z,58.89
2023-01-26T19:48:43.065Z,58.94
2023-01-26T19:51:12.744Z,59.16
2023-01-26T19:53:41.155Z,59.16
2023-01-26T19:56:08.948Z,59.37
2023-01-26T19:58:36.225Z,59.52
2023-01-26T20:01:04.543Z,59.75
2023-01-26T20:03:31.604Z,59.70
2023-01-26T20:05:58.729Z,59.32
2023-01-26T20:08:26.264Z,59.63
2023-01-26T20:10:52.915Z,60.28
2023-01-26T20:13:19.904Z,59.95
2023-01-26T20:15:46.745Z,60.60
2023-01-26T20:18:16.548Z,60.75
2023-01-26T20:20:43.250Z,60.48
2023-01-26T20:23:09.966Z,60.92
2023-01-26T20:25:37.244Z,60.58
2023-01-26T20:28:06.987Z,60.45
2023-01-26T20:30:34.377Z,60.56
2023-01-26T20:33:02.230Z,60.97
2023-01-26T20:35:29.873Z,61.12
2023-01-26T20:37:57.010Z,61.13
2023-01-26T20:40:23.746Z,61.05
2023-01-26T20:42:50.791Z,61.03
2023-01-26T20:45:17.667Z,60.89
2023-01-26T20:47:44.648Z,61.43
2023-01-26T20:50:14.644Z,61.05
2023-01-26T20:52:43.680Z,61.37
2023-01-26T20:55:12.064Z,61.31
2023-01-26T20:57:38.726Z,61.53
2023-01-26T21:00:07.252Z,61.31
2023-01-26T21:02:33.950Z,60.85
2023-01-26T21:05:05.820Z,60.55
2023-01-26T21:07:32.498Z,60.39
2023-01-26T21:09:59.111Z,60.45
2023-01-26T21:12:25.779Z,60.10
2023-01-26T21:14:52.466Z,60.59
2023-01-26T21:17:22.501Z,60.95
2023-01-26T21:19:49.949Z,60.76
2023-01-26T21:22:20.975Z,61.05
2023-01-26T21:24:47.610Z,60.50
2023-01-26T21:27:14.292Z,60.42
2023-01-26T21:29:40.982Z,60.56
2023-01-26T21:32:07.971Z,61.00
2023-01-26T21:34:34.618Z,60.93
2023-01-26T21:37:01.347Z,60.50
2023-01-26T21:39:28.023Z,60.39
2023-01-26T21:41:57.437Z,60.56
2023-01-26T21:44:26.128Z,60.85
2023-01-26T21:46:54.163Z,61.35
2023-01-26T21:49:21.123Z,61.03
2023-01-26T21:52:06.315Z,60.69
2023-01-26T21:54:33.083Z,60.68
2023-01-26T21:57:00.393Z,60.88
2023-01-26T21:59:27.143Z,60.44
2023-01-26T22:01:55.092Z,61.01
2023-01-26T22:04:26.013Z,60.94
2023-01-26T22:06:52.663Z,60.87
2023-01-26T22:09:19.490Z,61.68
2023-01-26T22:11:46.253Z,61.11
2023-01-26T22:14:16.932Z,61.02
2023-01-26T22:16:43.735Z,60.66
2023-01-26T22:19:11.019Z,61.71
2023-01-26T22:21:37.995Z,61.99
2023-01-26T22:24:05.454Z,62.11
2023-01-26T22:26:32.187Z,62.13
2023-01-26T22:28:59.649Z,62.07
2023-01-26T22:31:27.751Z,61.58
2023-01-26T22:33:55.300Z,61.27
2023-01-26T22:36:22.431Z,61.65
2023-01-26T22:38:49.497Z,61.63
2023-01-26T22:41:19.605Z,62.01
2023-01-26T22:43:48.343Z,62.08
2023-01-26T22:46:15.658Z,61.80
2023-01-26T22:48:42.397Z,61.76
2023-01-26T22:51:13.321Z,61.40
2023-01-26T22:53:40.135Z,62.37
2023-01-26T22:56:07.673Z,62.26
2023-01-26T22:58:39.751Z,62.34
2023-01-26T23:01:15.625Z,62.49
2023-01-26T23:03:43.787Z,62.63
2023-01-26T23:06:11.361Z,62.93
2023-01-26T23:08:38.018Z,62.59
2023-01-26T23:11:08.848Z,62.47
2023-01-26T23:13:35.616Z,62.29
2023-01-26T23:16:02.657Z,62.26
2023-01-26T23:18:29.931Z,62.67
2023-01-26T23:20:58.464Z,62.49
2023-01-26T23:23:27.717Z,62.32
2023-01-26T23:25:54.823Z,62.43
2023-01-26T23:28:29.056Z,62.92
2023-01-26T23:30:56.657Z,62.65
2023-01-26T23:33:24.253Z,62.77
2023-01-26T23:35:51.165Z,62.35
2023-01-26T23:38:18.196Z,62.10
2023-01-26T23:40:45.801Z,62.66
2023-01-26T23:43:16.964Z,62.23
2023-01-26T23:45:44.769Z,62.11
2023-01-26T23:48:11.584Z,62.39
2023-01-26T23:50:38.305Z,62.62
2023-01-26T23:53:04.913Z,62.79
2023-01-26T23:55:31.563Z,62.30
2023-01-26T23:57:58.278Z,62.88
